Time;durP1;ratioP1;P1;durP2;ratioP2;P2;SDS_P1;SDS_P2;PMS_P1;PMS_P2;Temp;Humidity;BMP_temperature;BMP_pressure;BME280_temperature;BME280_humidity;BME280_pressure;Samples;Min_cycle;Max_cycle;Signal;HPM_P1;HPM_P2
2021/01/28 00:00:36;;;;;;;89.45;6.97;;;;;;;;;;5073312;28;20028;-46
2021/01/28 00:03:03;;;;;;;91.95;9.07;;;;;;;;;;5074952;28;20074;-43
2021/01/28 00:05:31;;;;;;;69.72;5.97;;;;;;;;;;5074717;28;20372;-45
2021/01/28 00:07:59;;;;;;;122.63;11.20;;;;;;;;;;5074826;28;20028;-44
2021/01/28 00:10:26;;;;;;;60.58;6.05;;;;;;;;;;5073454;28;20520;-39
2021/01/28 00:12:53;;;;;;;38.60;4.43;;;;;;;;;;5073612;28;20554;-43
2021/01/28 00:15:23;;;;;;;35.15;3.92;;;;;;;;;;5069767;28;20044;-45
2021/01/28 00:17:50;;;;;;;98.50;10.05;;;;;;;;;;5057452;28;20041;-43
2021/01/28 00:20:18;;;;;;;99.47;9.00;;;;;;;;;;5071461;28;20021;-43
2021/01/28 00:22:46;;;;;;;59.85;5.60;;;;;;;;;;5054511;28;20025;-42
2021/01/28 00:25:15;;;;;;;37.78;4.13;;;;;;;;;;5073252;28;20380;-45
2021/01/28 00:27:42;;;;;;;35.50;4.35;;;;;;;;;;5073958;28;20031;-41
2021/01/28 00:30:10;;;;;;;64.88;6.95;;;;;;;;;;5073802;28;20104;-44
2021/01/28 00:32:37;;;;;;;56.00;5.20;;;;;;;;;;5055878;28;20028;-42
2021/01/28 00:35:04;;;;;;;43.38;5.20;;;;;;;;;;5071719;28;20033;-41
2021/01/28 00:37:32;;;;;;;43.88;5.43;;;;;;;;;;5073787;28;20013;-40
2021/01/28 00:39:59;;;;;;;40.58;4.35;;;;;;;;;;5071501;28;20024;-40
2021/01/28 00:42:26;;;;;;;60.95;5.60;;;;;;;;;;5053585;28;20017;-42
2021/01/28 00:44:53;;;;;;;43.53;4.30;;;;;;;;;;5067318;28;20046;-41
2021/01/28 00:47:20;;;;;;;37.60;4.60;;;;;;;;;;5057556;28;20456;-40
2021/01/28 00:49:47;;;;;;;89.25;6.70;;;;;;;;;;5073799;28;20048;-41
2021/01/28 00:52:14;;;;;;;87.68;8.73;;;;;;;;;;5073432;28;20049;-41
2021/01/28 00:54:41;;;;;;;53.13;6.75;;;;;;;;;;5073172;28;20036;-40
2021/01/28 00:57:08;;;;;;;47.03;5.70;;;;;;;;;;5073090;28;20020;-40
2021/01/28 00:59:35;;;;;;;34.60;5.30;;;;;;;;;;5071423;28;20060;-45
2021/01/28 01:02:02;;;;;;;127.35;12.25;;;;;;;;;;5073229;28;20074;-40
2021/01/28 01:04:29;;;;;;;61.00;7.15;;;;;;;;;;5073213;28;20093;-40
2021/01/28 01:06:57;;;;;;;49.65;6.57;;;;;;;;;;5073148;28;20027;-44
2021/01/28 01:09:25;;;;;;;46.85;4.45;;;;;;;;;;5072403;28;20103;-45
2021/01/28 01:11:53;;;;;;;32.42;4.63;;;;;;;;;;5071523;28;20475;-41
2021/01/28 01:14:20;;;;;;;29.88;3.70;;;;;;;;;;5072649;28;20036;-42
2021/01/28 01:16:48;;;;;;;111.43;10.23;;;;;;;;;;5072945;28;20465;-40
2021/01/28 01:19:16;;;;;;;144.43;11.23;;;;;;;;;;5073029;28;20032;-40
2021/01/28 01:21:43;;;;;;;70.03;6.18;;;;;;;;;;5071457;28;20032;-42
2021/01/28 01:24:11;;;;;;;72.20;6.47;;;;;;;;;;5071203;28;20480;-40
2021/01/28 01:26:38;;;;;;;32.92;3.70;;;;;;;;;;5072454;28;20150;-40
2021/01/28 01:29:06;;;;;;;30.73;3.28;;;;;;;;;;5073099;28;20405;-40
2021/01/28 01:31:33;;;;;;;23.23;3.13;;;;;;;;;;5072950;28;20024;-40
2021/01/28 01:34:00;;;;;;;21.38;2.65;;;;;;;;;;5071438;28;20109;-42
2021/01/28 01:36:27;;;;;;;59.65;5.43;;;;;;;;;;5071927;28;20024;-40
2021/01/28 01:38:54;;;;;;;28.63;2.53;;;;;;;;;;5072923;28;20020;-44
2021/01/28 01:41:21;;;;;;;53.72;4.93;;;;;;;;;;5072817;28;20020;-44
2021/01/28 01:43:57;;;;;;;31.80;3.60;;;;;;;;;;5072978;28;20046;-43
2021/01/28 01:46:25;;;;;;;27.45;2.60;;;;;;;;;;5070791;28;20047;-44
2021/01/28 01:48:53;;;;;;;20.15;3.00;;;;;;;;;;5072340;28;20537;-42
2021/01/28 01:51:26;;;;;;;49.88;4.10;;;;;;;;;;5072644;28;20031;-42
2021/01/28 01:57:00;;;;;;;34.63;3.42;;;;;;;;;;5072398;28;20035;-42
2021/01/28 01:59:31;;;;;;;18.83;2.30;;;;;;;;;;5069855;28;20110;-42
2021/01/28 02:02:01;;;;;;;29.60;2.83;;;;;;;;;;5072334;28;20032;-40
2021/01/28 02:04:29;;;;;;;15.75;1.85;;;;;;;;;;5054611;28;20492;-43
2021/01/28 02:07:01;;;;;;;29.42;2.38;;;;;;;;;;5064816;28;20082;-40
2021/01/28 02:09:28;;;;;;;23.98;1.98;;;;;;;;;;5064324;28;20101;-40
2021/01/28 02:11:55;;;;;;;9.05;2.00;;;;;;;;;;5068393;28;20024;-39
2021/01/28 02:14:23;;;;;;;10.77;1.70;;;;;;;;;;5062137;28;20037;-40
2021/01/28 02:16:55;;;;;;;5.80;1.40;;;;;;;;;;5069846;28;20021;-40
2021/01/28 02:19:46;;;;;;;15.35;1.42;;;;;;;;;;5066747;28;20024;-40
2021/01/28 02:22:13;;;;;;;16.88;1.83;;;;;;;;;;5049336;28;20040;-40
2021/01/28 02:24:50;;;;;;;18.95;2.15;;;;;;;;;;5070235;28;20032;-41
2021/01/28 02:27:18;;;;;;;13.30;1.63;;;;;;;;;;5066932;28;20024;-41
2021/01/28 02:29:46;;;;;;;20.30;1.50;;;;;;;;;;5063486;28;20043;-40
2021/01/28 02:32:13;;;;;;;16.05;1.60;;;;;;;;;;5068447;28;20057;-42
2021/01/28 02:34:42;;;;;;;6.78;1.27;;;;;;;;;;5069765;28;20039;-39
2021/01/28 02:37:23;;;;;;;9.57;1.27;;;;;;;;;;5042940;28;20025;-39
2021/01/28 02:39:51;;;;;;;9.25;1.58;;;;;;;;;;5063885;28;20025;-38
2021/01/28 02:42:22;;;;;;;10.90;1.48;;;;;;;;;;5060333;28;20021;-45
2021/01/28 02:44:49;;;;;;;12.07;1.43;;;;;;;;;;5066795;28;20082;-49
2021/01/28 02:47:17;;;;;;;10.75;1.55;;;;;;;;;;5063866;28;20316;-44
2021/01/28 02:49:44;;;;;;;11.45;1.50;;;;;;;;;;5057532;28;20032;-46
2021/01/28 02:52:12;;;;;;;13.02;1.42;;;;;;;;;;5062400;28;20013;-51
2021/01/28 02:54:43;;;;;;;16.52;1.52;;;;;;;;;;5068019;28;20055;-39
2021/01/28 02:57:11;;;;;;;20.60;2.33;;;;;;;;;;5068646;28;20025;-40
2021/01/28 02:59:39;;;;;;;26.40;2.00;;;;;;;;;;5060421;28;20032;-39
2021/01/28 03:02:11;;;;;;;20.55;2.13;;;;;;;;;;5061088;28;20020;-40
2021/01/28 03:04:39;;;;;;;12.70;1.50;;;;;;;;;;5058589;28;20408;-46
2021/01/28 03:07:07;;;;;;;9.38;1.50;;;;;;;;;;5057129;28;20025;-42
2021/01/28 03:09:35;;;;;;;19.17;1.92;;;;;;;;;;5057692;28;20043;-40
2021/01/28 03:12:04;;;;;;;12.52;1.48;;;;;;;;;;5060616;28;20127;-44
2021/01/28 03:14:31;;;;;;;11.57;1.20;;;;;;;;;;5057487;28;20040;-42
2021/01/28 03:16:59;;;;;;;11.68;1.60;;;;;;;;;;5061290;28;20507;-43
2021/01/28 03:19:27;;;;;;;9.90;1.67;;;;;;;;;;5066856;28;20048;-41
2021/01/28 03:21:54;;;;;;;10.25;1.73;;;;;;;;;;5062882;28;20362;-42
2021/01/28 03:24:22;;;;;;;15.68;1.58;;;;;;;;;;5064085;28;20492;-40
2021/01/28 03:26:49;;;;;;;16.65;1.70;;;;;;;;;;5066451;28;20107;-39
2021/01/28 03:29:17;;;;;;;12.38;1.48;;;;;;;;;;5067233;28;20037;-39
2021/01/28 03:31:44;;;;;;;4.90;1.25;;;;;;;;;;5064310;28;20024;-39
2021/01/28 03:34:11;;;;;;;3.78;1.20;;;;;;;;;;5062464;28;20076;-40
2021/01/28 03:36:39;;;;;;;6.72;1.30;;;;;;;;;;5070529;28;20038;-39
2021/01/28 03:39:07;;;;;;;9.40;1.15;;;;;;;;;;5067155;28;20078;-43
2021/01/28 03:41:35;;;;;;;8.82;1.58;;;;;;;;;;5064487;28;20443;-39
2021/01/28 03:44:02;;;;;;;12.30;1.45;;;;;;;;;;5069275;28;20095;-40
2021/01/28 03:46:31;;;;;;;17.75;1.48;;;;;;;;;;5064239;28;20048;-43
2021/01/28 03:48:58;;;;;;;7.00;1.05;;;;;;;;;;5059705;28;20040;-41
2021/01/28 03:51:26;;;;;;;9.30;1.27;;;;;;;;;;5067805;28;20114;-39
2021/01/28 03:53:53;;;;;;;9.07;1.45;;;;;;;;;;5061905;28;20028;-44
2021/01/28 03:56:20;;;;;;;11.38;1.40;;;;;;;;;;5074110;28;20040;-48
2021/01/28 03:58:47;;;;;;;7.20;1.50;;;;;;;;;;5073924;28;20028;-46
2021/01/28 04:01:14;;;;;;;8.85;1.52;;;;;;;;;;5075211;28;20106;-45
2021/01/28 04:03:41;;;;;;;9.70;1.92;;;;;;;;;;5056838;28;20553;-44
2021/01/28 04:06:08;;;;;;;10.30;1.80;;;;;;;;;;5074574;28;20056;-44
2021/01/28 04:08:35;;;;;;;10.30;1.70;;;;;;;;;;5057315;28;20028;-45
2021/01/28 04:11:02;;;;;;;9.73;2.22;;;;;;;;;;5074541;28;20530;-44
2021/01/28 04:13:29;;;;;;;12.02;1.70;;;;;;;;;;5074463;28;20035;-42
2021/01/28 04:15:56;;;;;;;6.75;1.67;;;;;;;;;;5074874;28;20028;-43
2021/01/28 04:18:23;;;;;;;7.70;1.60;;;;;;;;;;5074649;28;20096;-45
2021/01/28 04:20:51;;;;;;;5.63;1.33;;;;;;;;;;5074586;28;20031;-46
2021/01/28 04:23:18;;;;;;;10.27;2.10;;;;;;;;;;5074668;28;20024;-44
2021/01/28 04:25:45;;;;;;;10.40;1.20;;;;;;;;;;5074434;28;20028;-45
2021/01/28 04:28:13;;;;;;;7.63;1.48;;;;;;;;;;5056151;28;20415;-43
2021/01/28 04:30:40;;;;;;;8.25;1.30;;;;;;;;;;5074122;28;20044;-44
2021/01/28 04:33:09;;;;;;;7.80;1.58;;;;;;;;;;5074307;28;20024;-42
2021/01/28 04:35:36;;;;;;;6.80;1.42;;;;;;;;;;5074091;28;20032;-45
2021/01/28 04:38:03;;;;;;;7.05;1.30;;;;;;;;;;5074375;28;20032;-46
2021/01/28 04:40:30;;;;;;;8.38;1.98;;;;;;;;;;5074149;28;20021;-43
2021/01/28 04:42:59;;;;;;;14.93;3.03;;;;;;;;;;5073969;28;20059;-43
2021/01/28 04:45:27;;;;;;;14.02;2.88;;;;;;;;;;5073844;28;20038;-45
2021/01/28 04:48:02;;;;;;;7.93;2.15;;;;;;;;;;5074359;28;20020;-45
2021/01/28 04:50:35;;;;;;;8.10;1.80;;;;;;;;;;5074242;28;20024;-44
2021/01/28 04:53:04;;;;;;;7.13;1.70;;;;;;;;;;5074072;28;20044;-45
2021/01/28 04:55:41;;;;;;;12.23;1.85;;;;;;;;;;5073997;28;20035;-43
2021/01/28 04:58:09;;;;;;;5.03;1.45;;;;;;;;;;5074125;28;20033;-43
2021/01/28 05:00:37;;;;;;;7.38;1.67;;;;;;;;;;5073822;28;20031;-43
2021/01/28 05:03:08;;;;;;;7.47;1.30;;;;;;;;;;5073836;28;20016;-45
2021/01/28 05:05:35;;;;;;;6.97;1.52;;;;;;;;;;5073838;28;20034;-45
2021/01/28 05:08:02;;;;;;;5.70;1.17;;;;;;;;;;5073576;28;20024;-45
2021/01/28 05:10:29;;;;;;;5.68;1.30;;;;;;;;;;5073796;28;20024;-44
2021/01/28 05:12:56;;;;;;;10.13;2.03;;;;;;;;;;5073928;28;20362;-45
2021/01/28 05:15:27;;;;;;;10.55;1.42;;;;;;;;;;5073770;28;20120;-51
2021/01/28 05:17:59;;;;;;;5.25;1.27;;;;;;;;;;5073411;28;20021;-49
2021/01/28 05:20:27;;;;;;;7.32;1.63;;;;;;;;;;5073688;28;20099;-46
2021/01/28 05:22:59;;;;;;;11.20;1.40;;;;;;;;;;5073648;28;20020;-47
2021/01/28 05:25:29;;;;;;;3.38;1.10;;;;;;;;;;5073461;28;20024;-46
2021/01/28 05:27:56;;;;;;;5.85;1.00;;;;;;;;;;5073456;28;20039;-46
2021/01/28 05:30:40;;;;;;;5.85;1.10;;;;;;;;;;5055601;28;20059;-46
2021/01/28 05:33:43;;;;;;;4.65;1.10;;;;;;;;;;5073355;28;20066;-47
2021/01/28 05:36:17;;;;;;;5.00;1.10;;;;;;;;;;5031253;28;20029;-47
2021/01/28 05:38:47;;;;;;;7.10;1.33;;;;;;;;;;5067414;28;20105;-48
2021/01/28 05:41:30;;;;;;;5.75;1.05;;;;;;;;;;5072555;28;20162;-43
2021/01/28 05:43:57;;;;;;;6.47;1.00;;;;;;;;;;5073184;28;20020;-45
2021/01/28 05:46:26;;;;;;;5.85;1.45;;;;;;;;;;5072773;28;20547;-46
2021/01/28 05:49:07;;;;;;;2.83;1.00;;;;;;;;;;5072986;28;20385;-49
2021/01/28 05:51:44;;;;;;;7.90;1.20;;;;;;;;;;5073097;28;20040;-46
2021/01/28 05:54:22;;;;;;;7.65;1.35;;;;;;;;;;5072936;28;20552;-45
2021/01/28 05:56:52;;;;;;;9.55;1.38;;;;;;;;;;5073001;28;20103;-45
2021/01/28 05:59:37;;;;;;;5.28;1.30;;;;;;;;;;5072997;28;20036;-43
2021/01/28 06:02:16;;;;;;;6.22;1.30;;;;;;;;;;5072618;28;20490;-43
2021/01/28 06:05:09;;;;;;;6.35;1.20;;;;;;;;;;5072552;28;20031;-45
2021/01/28 06:07:39;;;;;;;10.70;1.20;;;;;;;;;;5072792;28;20033;-45
2021/01/28 06:10:12;;;;;;;4.15;1.35;;;;;;;;;;5072682;28;20104;-44
2021/01/28 06:12:46;;;;;;;3.92;0.85;;;;;;;;;;5072607;28;20025;-44
2021/01/28 06:15:28;;;;;;;6.90;1.02;;;;;;;;;;5072561;28;20040;-45
2021/01/28 06:18:02;;;;;;;7.03;1.10;;;;;;;;;;5072927;28;20075;-47
2021/01/28 06:20:47;;;;;;;4.53;1.10;;;;;;;;;;5072874;28;20029;-43
2021/01/28 06:23:30;;;;;;;7.45;1.48;;;;;;;;;;5073086;28;20044;-44
2021/01/28 06:26:16;;;;;;;10.40;1.58;;;;;;;;;;5072765;28;20028;-48
2021/01/28 06:28:58;;;;;;;4.60;1.67;;;;;;;;;;5072779;28;20051;-49
2021/01/28 06:31:37;;;;;;;4.78;1.50;;;;;;;;;;5072659;28;20017;-48
2021/01/28 06:34:22;;;;;;;6.53;1.58;;;;;;;;;;5072076;28;20396;-46
2021/01/28 06:37:09;;;;;;;7.05;1.50;;;;;;;;;;5072436;28;20392;-48
2021/01/28 06:39:36;;;;;;;4.80;1.50;;;;;;;;;;5072386;28;20521;-45
2021/01/28 06:42:09;;;;;;;5.55;1.60;;;;;;;;;;5072433;28;20092;-45
2021/01/28 06:44:42;;;;;;;4.97;1.40;;;;;;;;;;5072450;28;20027;-43
2021/01/28 06:47:15;;;;;;;5.97;1.55;;;;;;;;;;5072293;28;20079;-44
2021/01/28 06:49:50;;;;;;;5.13;1.42;;;;;;;;;;5072472;28;20027;-44
2021/01/28 06:52:26;;;;;;;9.88;1.98;;;;;;;;;;5073135;28;20457;-44
2021/01/28 06:54:55;;;;;;;10.05;2.53;;;;;;;;;;5076267;28;20039;-47
2021/01/28 06:57:22;;;;;;;9.45;2.70;;;;;;;;;;5076304;28;20044;-49
2021/01/28 06:59:56;;;;;;;12.13;2.50;;;;;;;;;;5076329;28;20105;-46
2021/01/28 07:02:25;;;;;;;15.05;3.45;;;;;;;;;;5076291;28;20028;-46
2021/01/28 07:04:58;;;;;;;8.70;3.05;;;;;;;;;;5076124;28;20021;-47
2021/01/28 07:07:26;;;;;;;11.85;3.42;;;;;;;;;;5076196;28;20029;-45
2021/01/28 07:10:01;;;;;;;11.43;2.90;;;;;;;;;;5075734;28;20376;-48
2021/01/28 07:12:38;;;;;;;9.95;3.45;;;;;;;;;;5076052;28;20487;-45
2021/01/28 07:15:06;;;;;;;9.18;2.88;;;;;;;;;;5075962;28;20115;-45
2021/01/28 07:17:38;;;;;;;15.73;4.05;;;;;;;;;;5076018;28;20115;-48
2021/01/28 07:20:07;;;;;;;13.97;3.87;;;;;;;;;;5075973;28;20098;-45
2021/01/28 07:22:41;;;;;;;15.48;4.53;;;;;;;;;;5075845;28;20266;-48
2021/01/28 07:25:20;;;;;;;15.88;4.70;;;;;;;;;;5075809;28;20027;-48
2021/01/28 07:27:59;;;;;;;15.10;4.70;;;;;;;;;;5075720;28;20495;-43
2021/01/28 07:30:44;;;;;;;18.70;6.25;;;;;;;;;;5075975;28;20025;-49
2021/01/28 07:33:26;;;;;;;23.27;7.03;;;;;;;;;;5075646;28;20029;-44
2021/01/28 07:35:54;;;;;;;19.42;6.88;;;;;;;;;;5075865;28;20488;-43
2021/01/28 07:38:30;;;;;;;19.00;6.57;;;;;;;;;;5075585;28;20029;-44
2021/01/28 07:41:01;;;;;;;18.33;7.03;;;;;;;;;;5075552;28;20025;-47
2021/01/28 07:43:29;;;;;;;16.63;6.93;;;;;;;;;;5075278;28;20059;-46
2021/01/28 07:46:11;;;;;;;19.75;7.00;;;;;;;;;;5075231;28;20036;-50
2021/01/28 07:48:39;;;;;;;22.50;7.90;;;;;;;;;;5075550;28;20095;-43
2021/01/28 07:51:24;;;;;;;22.45;6.55;;;;;;;;;;5075376;28;20025;-46
2021/01/28 07:53:52;;;;;;;20.55;6.20;;;;;;;;;;5075152;28;20103;-46
2021/01/28 07:56:37;;;;;;;19.70;6.32;;;;;;;;;;5075213;28;20504;-47
2021/01/28 07:59:05;;;;;;;19.75;5.35;;;;;;;;;;5075245;28;20039;-45
2021/01/28 08:01:32;;;;;;;16.70;5.57;;;;;;;;;;5075297;28;20029;-44
2021/01/28 08:04:05;;;;;;;15.35;5.18;;;;;;;;;;5074046;28;20033;-47
2021/01/28 08:06:35;;;;;;;19.80;5.10;;;;;;;;;;5074856;28;20508;-44
2021/01/28 08:09:04;;;;;;;14.82;6.00;;;;;;;;;;5074923;28;20020;-47
2021/01/28 08:11:31;;;;;;;19.00;5.38;;;;;;;;;;5075211;28;20024;-46
2021/01/28 08:13:58;;;;;;;13.73;5.57;;;;;;;;;;5074669;28;20035;-47
2021/01/28 08:16:26;;;;;;;22.33;6.50;;;;;;;;;;5074886;28;20099;-46
2021/01/28 08:19:16;;;;;;;20.92;7.03;;;;;;;;;;5074910;28;20017;-44
2021/01/28 08:21:43;;;;;;;28.70;7.85;;;;;;;;;;5074905;28;20020;-47
2021/01/28 08:24:12;;;;;;;32.05;9.50;;;;;;;;;;5074535;28;20024;-47
2021/01/28 08:26:42;;;;;;;25.98;8.68;;;;;;;;;;5074440;28;20027;-45
2021/01/28 08:29:20;;;;;;;28.38;9.50;;;;;;;;;;5074415;28;20070;-46
2021/01/28 08:31:49;;;;;;;31.08;9.75;;;;;;;;;;5074613;28;20039;-44
2021/01/28 08:34:29;;;;;;;25.65;9.50;;;;;;;;;;5074461;28;20023;-46
2021/01/28 08:36:58;;;;;;;25.33;8.95;;;;;;;;;;5074473;28;20021;-44
2021/01/28 08:39:27;;;;;;;24.13;8.20;;;;;;;;;;5074223;28;20029;-51
2021/01/28 08:42:00;;;;;;;22.42;7.45;;;;;;;;;;5074640;28;20099;-51
2021/01/28 08:44:27;;;;;;;18.90;6.53;;;;;;;;;;5074223;28;20029;-48
2021/01/28 08:47:04;;;;;;;18.42;5.22;;;;;;;;;;5073808;28;20044;-48
2021/01/28 08:49:31;;;;;;;20.50;4.72;;;;;;;;;;5074270;28;20025;-47
2021/01/28 08:52:06;;;;;;;14.15;4.13;;;;;;;;;;5074181;28;20093;-46
2021/01/28 08:54:36;;;;;;;18.77;5.45;;;;;;;;;;5073985;28;20423;-47
2021/01/28 08:57:03;;;;;;;17.55;5.40;;;;;;;;;;5073911;28;20025;-46
2021/01/28 08:59:50;;;;;;;12.52;4.68;;;;;;;;;;5073991;28;20051;-49
2021/01/28 09:02:47;;;;;;;14.20;4.55;;;;;;;;;;5073950;28;20078;-46
2021/01/28 09:05:14;;;;;;;14.93;4.35;;;;;;;;;;5065087;28;20049;-48
2021/01/28 09:07:46;;;;;;;14.68;4.07;;;;;;;;;;5073756;28;20020;-48
2021/01/28 09:10:13;;;;;;;12.52;4.10;;;;;;;;;;5073984;28;20028;-47
2021/01/28 09:12:40;;;;;;;12.15;3.67;;;;;;;;;;5073597;28;20029;-47
2021/01/28 09:15:11;;;;;;;10.82;3.33;;;;;;;;;;5073503;28;20049;-47
2021/01/28 09:17:38;;;;;;;11.35;3.58;;;;;;;;;;5073501;28;20027;-49
2021/01/28 09:20:06;;;;;;;9.93;3.25;;;;;;;;;;5073476;28;20035;-46
2021/01/28 09:22:34;;;;;;;11.85;3.05;;;;;;;;;;5073556;28;20023;-45
2021/01/28 09:25:03;;;;;;;9.30;2.85;;;;;;;;;;5073639;28;20108;-49
2021/01/28 09:27:32;;;;;;;11.82;3.03;;;;;;;;;;5073303;28;20132;-46
2021/01/28 09:30:09;;;;;;;6.88;2.90;;;;;;;;;;5073305;28;20051;-47
2021/01/28 09:32:37;;;;;;;12.05;2.97;;;;;;;;;;5055350;28;20020;-49
2021/01/28 09:35:05;;;;;;;9.23;2.70;;;;;;;;;;5073301;28;20029;-47
2021/01/28 09:37:36;;;;;;;10.23;3.33;;;;;;;;;;5073153;28;20036;-47
2021/01/28 09:40:14;;;;;;;15.15;3.50;;;;;;;;;;5055272;28;20427;-46
2021/01/28 09:42:42;;;;;;;10.55;2.72;;;;;;;;;;5073038;28;20457;-46
2021/01/28 09:45:26;;;;;;;10.23;2.70;;;;;;;;;;5073007;28;20044;-47
2021/01/28 09:47:58;;;;;;;5.00;2.08;;;;;;;;;;5055180;28;20058;-48
2021/01/28 09:50:25;;;;;;;7.18;2.53;;;;;;;;;;5073265;28;20097;-48
2021/01/28 09:52:53;;;;;;;6.78;1.83;;;;;;;;;;5072826;28;20036;-46
2021/01/28 09:55:21;;;;;;;8.35;1.83;;;;;;;;;;5072979;28;20078;-46
2021/01/28 09:57:49;;;;;;;14.23;2.45;;;;;;;;;;5054972;28;20491;-46
2021/01/28 10:00:20;;;;;;;8.65;2.45;;;;;;;;;;5072911;28;20017;-45
2021/01/28 10:02:52;;;;;;;10.05;2.75;;;;;;;;;;5072993;28;20024;-47
2021/01/28 10:05:21;;;;;;;9.10;2.42;;;;;;;;;;5072727;28;20048;-45
2021/01/28 10:07:49;;;;;;;9.25;2.10;;;;;;;;;;5072941;28;20279;-45
2021/01/28 10:10:17;;;;;;;7.40;2.05;;;;;;;;;;5072775;28;20027;-46
2021/01/28 10:12:44;;;;;;;12.57;2.50;;;;;;;;;;5072498;28;20062;-46
2021/01/28 10:15:11;;;;;;;9.70;2.30;;;;;;;;;;5054873;28;20081;-48
2021/01/28 10:17:38;;;;;;;5.18;1.90;;;;;;;;;;5072737;28;20031;-44
2021/01/28 10:20:06;;;;;;;5.32;2.03;;;;;;;;;;5072670;28;20091;-48
2021/01/28 10:22:35;;;;;;;11.75;2.22;;;;;;;;;;5072614;28;20476;-45
2021/01/28 10:25:02;;;;;;;10.02;1.73;;;;;;;;;;5072505;28;20035;-45
2021/01/28 10:27:29;;;;;;;5.18;2.13;;;;;;;;;;5071968;28;20096;-46
2021/01/28 10:29:56;;;;;;;4.30;1.65;;;;;;;;;;5054937;28;20039;-45
2021/01/28 10:32:23;;;;;;;10.30;1.60;;;;;;;;;;5072671;28;20025;-45
2021/01/28 10:34:50;;;;;;;7.35;2.03;;;;;;;;;;5072357;28;20426;-45
2021/01/28 10:37:17;;;;;;;8.88;1.75;;;;;;;;;;5072458;28;20095;-47
2021/01/28 10:39:45;;;;;;;7.03;1.58;;;;;;;;;;5072487;28;20150;-46
2021/01/28 10:42:32;;;;;;;4.63;1.55;;;;;;;;;;5072506;28;20096;-44
2021/01/28 10:44:59;;;;;;;10.48;1.52;;;;;;;;;;5072122;28;20033;-45
2021/01/28 10:47:26;;;;;;;4.13;1.20;;;;;;;;;;5072672;28;20044;-45
2021/01/28 10:49:53;;;;;;;5.00;1.48;;;;;;;;;;5054836;28;20443;-45
2021/01/28 10:52:20;;;;;;;6.45;1.60;;;;;;;;;;5072398;28;20021;-46
2021/01/28 10:54:47;;;;;;;4.68;1.20;;;;;;;;;;5072583;28;20074;-46
2021/01/28 10:57:14;;;;;;;8.90;1.58;;;;;;;;;;5054638;28;20361;-45
2021/01/28 10:59:41;;;;;;;5.25;1.27;;;;;;;;;;5072366;28;20111;-45
2021/01/28 11:02:08;;;;;;;8.95;1.42;;;;;;;;;;5054489;28;20065;-45
2021/01/28 11:04:36;;;;;;;11.43;1.83;;;;;;;;;;5072208;28;20171;-46
2021/01/28 11:07:03;;;;;;;5.38;1.30;;;;;;;;;;5071982;28;20096;-44
2021/01/28 11:09:30;;;;;;;10.65;1.55;;;;;;;;;;5072116;28;20029;-45
2021/01/28 11:11:57;;;;;;;12.30;1.10;;;;;;;;;;5072285;28;20503;-43
2021/01/28 11:14:24;;;;;;;9.18;1.40;;;;;;;;;;5072213;28;20020;-44
2021/01/28 11:16:52;;;;;;;13.13;1.80;;;;;;;;;;5072340;28;20031;-45
2021/01/28 11:19:19;;;;;;;9.60;1.55;;;;;;;;;;5072099;28;20032;-46
2021/01/28 11:21:46;;;;;;;7.07;1.35;;;;;;;;;;5072060;28;20024;-45
2021/01/28 11:24:13;;;;;;;6.30;1.30;;;;;;;;;;5072064;28;20037;-44
2021/01/28 11:26:40;;;;;;;6.80;1.30;;;;;;;;;;5072138;28;20036;-44
2021/01/28 11:29:07;;;;;;;4.13;1.02;;;;;;;;;;5071945;28;20045;-46
2021/01/28 11:31:37;;;;;;;9.18;0.82;;;;;;;;;;5070897;28;20035;-45
2021/01/28 11:34:05;;;;;;;6.60;1.02;;;;;;;;;;5052275;28;20029;-46
2021/01/28 11:36:32;;;;;;;7.03;0.90;;;;;;;;;;5051930;28;20055;-45
2021/01/28 11:39:00;;;;;;;12.70;1.00;;;;;;;;;;5054260;28;20122;-41
2021/01/28 11:41:27;;;;;;;15.48;1.05;;;;;;;;;;5074012;28;20109;-47
2021/01/28 11:43:54;;;;;;;13.98;0.90;;;;;;;;;;5072384;28;20059;-46
2021/01/28 11:46:21;;;;;;;6.80;0.70;;;;;;;;;;5072676;28;20041;-43
2021/01/28 11:48:48;;;;;;;6.57;0.60;;;;;;;;;;5078642;28;20016;-44
2021/01/28 11:51:15;;;;;;;11.38;0.60;;;;;;;;;;5080257;28;20135;-42
2021/01/28 11:53:42;;;;;;;5.35;0.60;;;;;;;;;;5072479;28;20056;-41
2021/01/28 11:56:09;;;;;;;11.57;0.82;;;;;;;;;;5070848;28;20086;-44
2021/01/28 11:58:36;;;;;;;4.85;0.45;;;;;;;;;;5073911;28;20028;-44
2021/01/28 12:01:03;;;;;;;5.18;0.60;;;;;;;;;;5074609;28;20504;-45
2021/01/28 12:03:31;;;;;;;5.60;0.57;;;;;;;;;;5072725;28;20024;-45
2021/01/28 12:05:58;;;;;;;13.43;1.17;;;;;;;;;;5071956;28;20012;-42
2021/01/28 12:08:25;;;;;;;5.68;0.63;;;;;;;;;;5070627;28;20028;-41
2021/01/28 12:10:52;;;;;;;9.80;0.60;;;;;;;;;;5073741;28;20031;-41
2021/01/28 12:13:19;;;;;;;8.68;1.00;;;;;;;;;;5074556;28;20021;-56
2021/01/28 12:15:46;;;;;;;1.70;0.40;;;;;;;;;;5072549;28;20032;-42
2021/01/28 12:18:13;;;;;;;14.98;1.25;;;;;;;;;;5070649;28;20607;-59
2021/01/28 12:20:40;;;;;;;3.67;0.47;;;;;;;;;;5073337;28;20021;-41
2021/01/28 12:23:07;;;;;;;3.63;0.43;;;;;;;;;;5073995;28;20093;-44
2021/01/28 12:25:34;;;;;;;8.95;0.45;;;;;;;;;;5069747;28;20040;-43
2021/01/28 12:28:01;;;;;;;5.80;0.50;;;;;;;;;;5071080;28;20023;-46
2021/01/28 12:30:28;;;;;;;5.63;0.73;;;;;;;;;;5074002;28;20532;-44
2021/01/28 12:32:55;;;;;;;5.05;0.38;;;;;;;;;;5074443;28;20480;-41
2021/01/28 12:35:22;;;;;;;7.60;0.70;;;;;;;;;;5051479;28;20560;-44
2021/01/28 12:37:50;;;;;;;15.85;1.15;;;;;;;;;;5072714;28;20366;-48
2021/01/28 12:40:19;;;;;;;11.30;0.80;;;;;;;;;;5071841;28;20377;-43
2021/01/28 12:42:46;;;;;;;12.20;0.80;;;;;;;;;;5072931;28;20016;-47
2021/01/28 12:45:13;;;;;;;10.57;1.25;;;;;;;;;;5069767;28;20052;-44
2021/01/28 12:47:40;;;;;;;11.63;0.70;;;;;;;;;;5073164;28;20115;-43
2021/01/28 12:50:08;;;;;;;8.38;0.80;;;;;;;;;;5069369;28;20464;-42
2021/01/28 12:52:36;;;;;;;8.40;0.68;;;;;;;;;;5072163;28;20029;-41
2021/01/28 12:55:03;;;;;;;9.20;0.77;;;;;;;;;;5073634;28;20044;-41
2021/01/28 12:57:30;;;;;;;10.45;0.75;;;;;;;;;;5072821;28;20028;-41
2021/01/28 12:59:57;;;;;;;8.63;0.88;;;;;;;;;;5072683;28;20021;-41
2021/01/28 13:02:25;;;;;;;6.63;0.60;;;;;;;;;;5070598;28;20066;-50
2021/01/28 13:04:52;;;;;;;6.88;0.75;;;;;;;;;;5071705;28;20028;-46
2021/01/28 13:07:19;;;;;;;14.02;1.00;;;;;;;;;;5068686;28;20024;-54
2021/01/28 13:09:46;;;;;;;5.05;0.32;;;;;;;;;;5071714;28;20016;-59
2021/01/28 13:12:13;;;;;;;5.00;0.43;;;;;;;;;;5072921;28;20021;-55
2021/01/28 13:14:42;;;;;;;5.65;0.50;;;;;;;;;;5070979;28;20055;-49
2021/01/28 13:17:12;;;;;;;2.92;0.43;;;;;;;;;;5072707;28;20369;-50
2021/01/28 13:19:39;;;;;;;7.68;0.80;;;;;;;;;;5072668;28;20110;-45
2021/01/28 13:22:07;;;;;;;4.18;0.50;;;;;;;;;;5073167;28;20021;-59
2021/01/28 13:24:34;;;;;;;11.20;0.55;;;;;;;;;;5072525;28;20066;-45
2021/01/28 13:27:01;;;;;;;6.32;0.68;;;;;;;;;;5052730;28;20031;-44
2021/01/28 13:29:28;;;;;;;9.63;0.82;;;;;;;;;;5071828;28;20115;-47
2021/01/28 13:31:55;;;;;;;8.10;0.80;;;;;;;;;;5072567;28;20495;-44
2021/01/28 13:34:22;;;;;;;5.70;0.50;;;;;;;;;;5070631;28;20400;-42
2021/01/28 13:36:49;;;;;;;6.40;0.50;;;;;;;;;;5072158;28;20038;-46
2021/01/28 13:39:16;;;;;;;4.93;0.57;;;;;;;;;;5069731;28;20163;-48
2021/01/28 13:41:43;;;;;;;10.40;0.68;;;;;;;;;;5073466;28;20024;-41
2021/01/28 13:44:10;;;;;;;2.75;0.50;;;;;;;;;;5072357;28;20032;-43
2021/01/28 13:46:37;;;;;;;5.07;0.52;;;;;;;;;;5071671;28;20056;-42
2021/01/28 13:49:04;;;;;;;11.73;0.80;;;;;;;;;;5072669;28;20078;-42
2021/01/28 13:51:31;;;;;;;14.75;0.98;;;;;;;;;;5070243;28;20476;-51
2021/01/28 13:53:58;;;;;;;5.22;0.50;;;;;;;;;;5072533;28;20024;-47
2021/01/28 13:56:26;;;;;;;14.77;1.63;;;;;;;;;;5072745;28;20059;-51
2021/01/28 13:58:53;;;;;;;8.10;0.70;;;;;;;;;;5072310;28;20103;-53
2021/01/28 14:01:20;;;;;;;4.47;0.65;;;;;;;;;;5071568;28;20467;-50
2021/01/28 14:03:47;;;;;;;7.47;0.82;;;;;;;;;;5070441;28;20020;-53
2021/01/28 14:06:14;;;;;;;94.25;6.43;;;;;;;;;;5072361;28;20029;-49
2021/01/28 14:08:41;;;;;;;17.90;0.88;;;;;;;;;;5072412;28;20133;-47
2021/01/28 14:11:09;;;;;;;10.13;0.80;;;;;;;;;;5052420;28;20028;-49
2021/01/28 14:13:35;;;;;;;8.25;0.63;;;;;;;;;;5051367;28;20021;-47
2021/01/28 14:16:02;;;;;;;5.72;0.60;;;;;;;;;;5033103;28;20055;-49
2021/01/28 14:18:29;;;;;;;6.40;0.40;;;;;;;;;;5054072;28;20117;-50
2021/01/28 14:20:57;;;;;;;5.75;0.55;;;;;;;;;;5059950;28;20039;-44
2021/01/28 14:23:24;;;;;;;6.78;0.50;;;;;;;;;;5052151;28;20104;-45
2021/01/28 14:25:51;;;;;;;5.60;0.60;;;;;;;;;;5050151;28;20453;-46
2021/01/28 14:28:18;;;;;;;6.93;0.63;;;;;;;;;;5051595;28;20025;-49
2021/01/28 14:30:45;;;;;;;8.38;0.60;;;;;;;;;;5052096;28;20418;-48
2021/01/28 14:33:12;;;;;;;11.23;0.80;;;;;;;;;;5052278;28;20056;-47
2021/01/28 14:35:40;;;;;;;6.10;0.45;;;;;;;;;;5051988;28;20070;-44
2021/01/28 14:38:07;;;;;;;8.13;0.45;;;;;;;;;;5049819;28;20028;-46
2021/01/28 14:40:34;;;;;;;9.10;0.75;;;;;;;;;;5051985;28;20071;-49
2021/01/28 14:43:01;;;;;;;19.23;1.63;;;;;;;;;;5051928;28;20542;-48
2021/01/28 14:45:28;;;;;;;4.35;0.45;;;;;;;;;;5051496;28;20060;-49
2021/01/28 14:47:55;;;;;;;3.75;0.90;;;;;;;;;;5052100;28;20022;-49
2021/01/28 14:50:22;;;;;;;6.63;0.60;;;;;;;;;;5057320;28;20479;-44
2021/01/28 14:52:49;;;;;;;3.10;0.55;;;;;;;;;;5059735;28;20024;-47